sensor_id;sensor_type;location;lat;lon;timestamp;P1;durP1;ratioP1;P2;durP2;ratioP2
74845;SDS011;63393;48.758;9.254;2022-11-03T00:01:11;26.65;;;9.57;;
74845;SDS011;63393;48.758;9.254;2022-11-03T00:03:38;21.15;;;9.65;;
74845;SDS011;63393;48.758;9.254;2022-11-03T00:06:06;21.58;;;9.13;;
74845;SDS011;63393;48.758;9.254;2022-11-03T00:08:36;21.30;;;8.88;;
74845;SDS011;63393;48.758;9.254;2022-11-03T00:11:04;19.70;;;8.90;;
74845;SDS011;63393;48.758;9.254;2022-11-03T00:13:32;21.58;;;8.77;;
74845;SDS011;63393;48.758;9.254;2022-11-03T00:15:59;20.92;;;8.88;;
74845;SDS011;63393;48.758;9.254;2022-11-03T00:18:27;24.00;;;9.45;;
74845;SDS011;63393;48.758;9.254;2022-11-03T00:20:55;19.92;;;8.30;;
74845;SDS011;63393;48.758;9.254;2022-11-03T00:23:23;23.55;;;8.98;;
74845;SDS011;63393;48.758;9.254;2022-11-03T00:25:52;24.75;;;10.93;;
74845;SDS011;63393;48.758;9.254;2022-11-03T00:28:19;18.65;;;8.10;;
74845;SDS011;63393;48.758;9.254;2022-11-03T00:30:47;16.63;;;7.43;;
74845;SDS011;63393;48.758;9.254;2022-11-03T00:33:15;21.25;;;8.18;;
74845;SDS011;63393;48.758;9.254;2022-11-03T00:35:42;21.50;;;8.00;;
74845;SDS011;63393;48.758;9.254;2022-11-03T00:38:09;23.25;;;9.32;;
74845;SDS011;63393;48.758;9.254;2022-11-03T00:40:37;21.17;;;9.07;;
74845;SDS011;63393;48.758;9.254;2022-11-03T00:43:06;20.65;;;8.95;;
74845;SDS011;63393;48.758;9.254;2022-11-03T00:45:33;28.15;;;10.35;;
74845;SDS011;63393;48.758;9.254;2022-11-03T00:48:01;19.58;;;9.15;;
74845;SDS011;63393;48.758;9.254;2022-11-03T00:50:46;23.02;;;9.55;;
74845;SDS011;63393;48.758;9.254;2022-11-03T00:53:13;21.27;;;9.90;;
74845;SDS011;63393;48.758;9.254;2022-11-03T00:55:41;26.23;;;10.60;;
74845;SDS011;63393;48.758;9.254;2022-11-03T00:58:10;24.17;;;9.55;;
74845;SDS011;63393;48.758;9.254;2022-11-03T01:00:37;25.10;;;9.88;;
74845;SDS011;63393;48.758;9.254;2022-11-03T01:03:05;24.70;;;9.93;;
74845;SDS011;63393;48.758;9.254;2022-11-03T01:05:32;25.05;;;9.88;;
74845;SDS011;63393;48.758;9.254;2022-11-03T01:08:17;23.13;;;8.63;;
74845;SDS011;63393;48.758;9.254;2022-11-03T01:10:44;22.75;;;9.95;;
74845;SDS011;63393;48.758;9.254;2022-11-03T01:13:27;23.80;;;9.60;;
74845;SDS011;63393;48.758;9.254;2022-11-03T01:15:55;23.55;;;10.05;;
74845;SDS011;63393;48.758;9.254;2022-11-03T01:18:24;28.38;;;9.48;;
74845;SDS011;63393;48.758;9.254;2022-11-03T01:20:54;22.30;;;9.38;;
74845;SDS011;63393;48.758;9.254;2022-11-03T01:23:22;24.08;;;8.98;;
74845;SDS011;63393;48.758;9.254;2022-11-03T01:25:49;21.85;;;8.52;;
74845;SDS011;63393;48.758;9.254;2022-11-03T01:28:17;22.70;;;9.10;;
74845;SDS011;63393;48.758;9.254;2022-11-03T01:30:45;20.17;;;8.63;;
74845;SDS011;63393;48.758;9.254;2022-11-03T01:33:13;24.92;;;9.38;;
74845;SDS011;63393;48.758;9.254;2022-11-03T01:35:40;22.50;;;9.27;;
74845;SDS011;63393;48.758;9.254;2022-11-03T01:38:08;20.85;;;8.90;;
74845;SDS011;63393;48.758;9.254;2022-11-03T01:40:35;24.38;;;9.38;;
74845;SDS011;63393;48.758;9.254;2022-11-03T01:43:14;24.35;;;10.20;;
74845;SDS011;63393;48.758;9.254;2022-11-03T01:45:42;21.75;;;9.45;;
74845;SDS011;63393;48.758;9.254;2022-11-03T01:48:11;23.67;;;10.05;;
74845;SDS011;63393;48.758;9.254;2022-11-03T01:50:39;21.15;;;9.90;;
74845;SDS011;63393;48.758;9.254;2022-11-03T01:53:09;22.83;;;9.20;;
74845;SDS011;63393;48.758;9.254;2022-11-03T01:55:38;22.27;;;9.63;;
74845;SDS011;63393;48.758;9.254;2022-11-03T01:58:06;22.15;;;10.43;;
74845;SDS011;63393;48.758;9.254;2022-11-03T02:00:36;24.60;;;11.43;;
74845;SDS011;63393;48.758;9.254;2022-11-03T02:03:04;35.50;;;15.27;;
74845;SDS011;63393;48.758;9.254;2022-11-03T02:05:33;22.27;;;11.48;;
74845;SDS011;63393;48.758;9.254;2022-11-03T02:08:03;24.80;;;10.00;;
74845;SDS011;63393;48.758;9.254;2022-11-03T02:10:31;24.90;;;10.55;;
74845;SDS011;63393;48.758;9.254;2022-11-03T02:12:58;23.73;;;10.00;;
74845;SDS011;63393;48.758;9.254;2022-11-03T02:15:26;24.42;;;9.70;;
74845;SDS011;63393;48.758;9.254;2022-11-03T02:17:54;23.83;;;10.88;;
74845;SDS011;63393;48.758;9.254;2022-11-03T02:20:23;22.65;;;10.90;;
74845;SDS011;63393;48.758;9.254;2022-11-03T02:23:03;34.67;;;16.38;;
74845;SDS011;63393;48.758;9.254;2022-11-03T02:25:40;28.80;;;13.13;;
74845;SDS011;63393;48.758;9.254;2022-11-03T02:28:08;31.35;;;14.52;;
74845;SDS011;63393;48.758;9.254;2022-11-03T02:30:37;32.15;;;13.70;;
74845;SDS011;63393;48.758;9.254;2022-11-03T02:33:08;28.98;;;13.15;;
74845;SDS011;63393;48.758;9.254;2022-11-03T02:35:37;27.67;;;11.90;;
74845;SDS011;63393;48.758;9.254;2022-11-03T02:38:07;25.85;;;10.68;;
74845;SDS011;63393;48.758;9.254;2022-11-03T02:40:37;24.92;;;10.48;;
74845;SDS011;63393;48.758;9.254;2022-11-03T02:43:06;21.27;;;10.00;;
74845;SDS011;63393;48.758;9.254;2022-11-03T02:45:35;23.33;;;9.88;;
74845;SDS011;63393;48.758;9.254;2022-11-03T02:48:04;24.33;;;10.68;;
74845;SDS011;63393;48.758;9.254;2022-11-03T02:50:32;19.90;;;9.48;;
74845;SDS011;63393;48.758;9.254;2022-11-03T02:53:00;24.85;;;10.18;;
74845;SDS011;63393;48.758;9.254;2022-11-03T02:55:30;25.23;;;10.63;;
74845;SDS011;63393;48.758;9.254;2022-11-03T02:57:59;30.13;;;12.05;;
74845;SDS011;63393;48.758;9.254;2022-11-03T03:00:32;25.27;;;10.80;;
74845;SDS011;63393;48.758;9.254;2022-11-03T03:03:03;25.30;;;11.05;;
74845;SDS011;63393;48.758;9.254;2022-11-03T04:30:26;28.23;;;10.95;;
74845;SDS011;63393;48.758;9.254;2022-11-03T07:19:57;20.65;;;9.48;;
74845;SDS011;63393;48.758;9.254;2022-11-03T07:22:26;21.23;;;8.85;;
74845;SDS011;63393;48.758;9.254;2022-11-03T09:05:43;22.65;;;9.90;;
74845;SDS011;63393;48.758;9.254;2022-11-03T09:59:50;26.90;;;11.70;;
74845;SDS011;63393;48.758;9.254;2022-11-03T10:02:19;24.92;;;8.85;;
